sensor_id;sensor_type;location;lat;lon;timestamp;pressure;altitude;pressure_sealevel;temperature;humidity
75629;BME280;64213;46.452;16.994;2024-01-30T00:01:36;102103.19;;;0.79;98.52
75629;BME280;64213;46.452;16.994;2024-01-30T00:04:38;102097.16;;;0.81;98.34
75629;BME280;64213;46.452;16.994;2024-01-30T00:07:41;102097.13;;;0.80;98.43
75629;BME280;64213;46.452;16.994;2024-01-30T00:10:43;102098.84;;;0.78;98.49
75629;BME280;64213;46.452;16.994;2024-01-30T00:13:46;102094.50;;;0.74;98.69
75629;BME280;64213;46.452;16.994;2024-01-30T00:16:48;102097.09;;;0.74;98.58
75629;BME280;64213;46.452;16.994;2024-01-30T00:19:51;102091.78;;;0.64;98.83
75629;BME280;64213;46.452;16.994;2024-01-30T00:22:54;102093.47;;;0.59;99.22
75629;BME280;64213;46.452;16.994;2024-01-30T00:25:57;102092.59;;;0.59;99.54
75629;BME280;64213;46.452;16.994;2024-01-30T00:28:59;102096.06;;;0.59;99.95
75629;BME280;64213;46.452;16.994;2024-01-30T00:32:02;102096.94;;;0.58;99.82
75629;BME280;64213;46.452;16.994;2024-01-30T00:35:05;102091.69;;;0.55;99.50
75629;BME280;64213;46.452;16.994;2024-01-30T00:38:08;102094.34;;;0.58;99.75
75629;BME280;64213;46.452;16.994;2024-01-30T00:41:10;102094.19;;;0.46;99.43
75629;BME280;64213;46.452;16.994;2024-01-30T00:44:13;102109.50;;;0.17;98.89
75629;BME280;64213;46.452;16.994;2024-01-30T00:47:16;102105.72;;;-0.08;98.92
75629;BME280;64213;46.452;16.994;2024-01-30T00:50:18;102110.59;;;-0.30;99.31
75629;BME280;64213;46.452;16.994;2024-01-30T00:53:20;102113.75;;;-0.54;100.00
75629;BME280;64213;46.452;16.994;2024-01-30T00:56:22;102105.72;;;-0.67;100.00
75629;BME280;64213;46.452;16.994;2024-01-30T00:59:26;102102.97;;;-0.80;100.00
75629;BME280;64213;46.452;16.994;2024-01-30T01:02:29;102105.31;;;-0.95;100.00
75629;BME280;64213;46.452;16.994;2024-01-30T01:05:33;102099.03;;;-1.06;100.00
75629;BME280;64213;46.452;16.994;2024-01-30T01:08:35;102097.13;;;-1.18;100.00
75629;BME280;64213;46.452;16.994;2024-01-30T01:11:38;102096.97;;;-1.26;100.00
75629;BME280;64213;46.452;16.994;2024-01-30T01:14:40;102097.66;;;-1.36;100.00
75629;BME280;64213;46.452;16.994;2024-01-30T01:17:47;102095.81;;;-1.43;100.00
75629;BME280;64213;46.452;16.994;2024-01-30T01:20:49;102097.38;;;-1.51;100.00
75629;BME280;64213;46.452;16.994;2024-01-30T01:23:52;102107.56;;;-1.60;100.00
75629;BME280;64213;46.452;16.994;2024-01-30T01:26:55;102100.66;;;-1.61;100.00
75629;BME280;64213;46.452;16.994;2024-01-30T01:30:00;102104.25;;;-1.53;100.00
75629;BME280;64213;46.452;16.994;2024-01-30T01:33:04;102101.41;;;-1.67;100.00
75629;BME280;64213;46.452;16.994;2024-01-30T01:36:06;102097.84;;;-1.72;100.00
75629;BME280;64213;46.452;16.994;2024-01-30T01:39:09;102101.16;;;-1.79;100.00
75629;BME280;64213;46.452;16.994;2024-01-30T01:42:15;102107.13;;;-1.85;100.00
75629;BME280;64213;46.452;16.994;2024-01-30T01:45:18;102107.06;;;-1.88;100.00
75629;BME280;64213;46.452;16.994;2024-01-30T01:48:21;102100.22;;;-1.83;100.00
75629;BME280;64213;46.452;16.994;2024-01-30T01:51:27;102099.22;;;-0.96;100.00
75629;BME280;64213;46.452;16.994;2024-01-30T01:54:30;102099.16;;;-0.44;100.00
75629;BME280;64213;46.452;16.994;2024-01-30T01:57:33;102101.16;;;-0.23;100.00
75629;BME280;64213;46.452;16.994;2024-01-30T02:00:36;102106.53;;;-0.12;100.00
75629;BME280;64213;46.452;16.994;2024-01-30T02:03:42;102098.69;;;-0.14;100.00
75629;BME280;64213;46.452;16.994;2024-01-30T02:06:45;102095.13;;;-0.20;100.00
75629;BME280;64213;46.452;16.994;2024-01-30T02:09:47;102102.88;;;-0.25;100.00
75629;BME280;64213;46.452;16.994;2024-01-30T02:12:50;102083.66;;;-0.38;100.00
75629;BME280;64213;46.452;16.994;2024-01-30T02:15:53;102098.28;;;-0.43;100.00
75629;BME280;64213;46.452;16.994;2024-01-30T02:18:56;102100.97;;;-0.37;100.00
75629;BME280;64213;46.452;16.994;2024-01-30T02:21:59;102088.97;;;-0.29;100.00
75629;BME280;64213;46.452;16.994;2024-01-30T02:25:02;102090.63;;;-0.34;100.00
75629;BME280;64213;46.452;16.994;2024-01-30T02:28:05;102095.81;;;-0.34;100.00
75629;BME280;64213;46.452;16.994;2024-01-30T02:31:07;102087.94;;;-0.38;100.00
75629;BME280;64213;46.452;16.994;2024-01-30T02:34:10;102090.34;;;-0.52;100.00
75629;BME280;64213;46.452;16.994;2024-01-30T02:37:12;102088.81;;;-0.39;100.00
75629;BME280;64213;46.452;16.994;2024-01-30T02:40:15;102084.44;;;-0.42;100.00
75629;BME280;64213;46.452;16.994;2024-01-30T02:43:17;102084.47;;;-0.40;100.00
75629;BME280;64213;46.452;16.994;2024-01-30T02:46:20;102080.97;;;-0.42;100.00
75629;BME280;64213;46.452;16.994;2024-01-30T02:49:22;102074.84;;;-0.48;100.00
75629;BME280;64213;46.452;16.994;2024-01-30T02:52:25;102081.75;;;-0.50;100.00
75629;BME280;64213;46.452;16.994;2024-01-30T02:55:28;102077.31;;;-0.57;100.00
75629;BME280;64213;46.452;16.994;2024-01-30T02:58:30;102076.41;;;-0.60;100.00
75629;BME280;64213;46.452;16.994;2024-01-30T03:01:33;102082.22;;;-0.75;100.00
75629;BME280;64213;46.452;16.994;2024-01-30T03:04:47;102073.97;;;-1.04;100.00
75629;BME280;64213;46.452;16.994;2024-01-30T03:07:50;102072.75;;;-1.25;100.00
75629;BME280;64213;46.452;16.994;2024-01-30T03:10:53;102067.81;;;-1.11;100.00
75629;BME280;64213;46.452;16.994;2024-01-30T03:13:56;102070.53;;;-1.03;100.00
75629;BME280;64213;46.452;16.994;2024-01-30T03:16:58;102071.38;;;-1.03;100.00
75629;BME280;64213;46.452;16.994;2024-01-30T03:20:01;102068.31;;;-1.32;100.00
75629;BME280;64213;46.452;16.994;2024-01-30T03:23:05;102071.38;;;-1.54;100.00
75629;BME280;64213;46.452;16.994;2024-01-30T03:26:14;102077.97;;;-1.72;100.00
75629;BME280;64213;46.452;16.994;2024-01-30T03:29:17;102079.41;;;-1.86;100.00
75629;BME280;64213;46.452;16.994;2024-01-30T03:32:20;102079.22;;;-1.95;100.00
75629;BME280;64213;46.452;16.994;2024-01-30T03:35:23;102077.22;;;-2.08;100.00
75629;BME280;64213;46.452;16.994;2024-01-30T03:38:26;102082.09;;;-2.24;100.00
75629;BME280;64213;46.452;16.994;2024-01-30T03:41:30;102081.94;;;-2.30;100.00
75629;BME280;64213;46.452;16.994;2024-01-30T03:44:34;102078.22;;;-2.43;100.00
75629;BME280;64213;46.452;16.994;2024-01-30T03:47:38;102079.84;;;-2.48;100.00
75629;BME280;64213;46.452;16.994;2024-01-30T03:50:41;102080.63;;;-2.52;100.00
75629;BME280;64213;46.452;16.994;2024-01-30T03:53:44;102076.25;;;-2.54;100.00
75629;BME280;64213;46.452;16.994;2024-01-30T03:56:49;102083.03;;;-2.60;100.00
75629;BME280;64213;46.452;16.994;2024-01-30T03:59:52;102075.69;;;-2.40;100.00
75629;BME280;64213;46.452;16.994;2024-01-30T04:02:56;102081.53;;;-2.50;100.00
75629;BME280;64213;46.452;16.994;2024-01-30T04:06:01;102076.19;;;-2.58;100.00
75629;BME280;64213;46.452;16.994;2024-01-30T04:09:03;102074.31;;;-2.63;100.00
75629;BME280;64213;46.452;16.994;2024-01-30T04:12:06;102073.44;;;-2.64;100.00
75629;BME280;64213;46.452;16.994;2024-01-30T04:15:09;102062.41;;;-2.16;100.00
75629;BME280;64213;46.452;16.994;2024-01-30T04:18:12;102062.97;;;-1.87;100.00
75629;BME280;64213;46.452;16.994;2024-01-30T04:21:16;102056.50;;;-1.63;100.00
75629;BME280;64213;46.452;16.994;2024-01-30T04:24:18;102060.25;;;-1.47;100.00
75629;BME280;64213;46.452;16.994;2024-01-30T04:27:21;102057.81;;;-1.38;100.00
75629;BME280;64213;46.452;16.994;2024-01-30T04:30:23;102060.13;;;-1.55;100.00
75629;BME280;64213;46.452;16.994;2024-01-30T04:33:26;102054.56;;;-1.75;100.00
75629;BME280;64213;46.452;16.994;2024-01-30T04:36:29;102062.72;;;-2.00;100.00
75629;BME280;64213;46.452;16.994;2024-01-30T04:39:33;102054.63;;;-1.72;100.00
75629;BME280;64213;46.452;16.994;2024-01-30T04:42:37;102057.66;;;-1.47;100.00
75629;BME280;64213;46.452;16.994;2024-01-30T04:45:42;102054.28;;;-1.43;100.00
75629;BME280;64213;46.452;16.994;2024-01-30T04:48:46;102061.25;;;-1.39;100.00
75629;BME280;64213;46.452;16.994;2024-01-30T04:51:49;102055.22;;;-1.38;100.00
75629;BME280;64213;46.452;16.994;2024-01-30T04:54:51;102046.50;;;-1.43;100.00
75629;BME280;64213;46.452;16.994;2024-01-30T04:57:54;102056.84;;;-1.45;100.00
75629;BME280;64213;46.452;16.994;2024-01-30T05:00:56;102051.06;;;-1.77;100.00
75629;BME280;64213;46.452;16.994;2024-01-30T05:04:00;102057.66;;;-1.94;100.00
75629;BME280;64213;46.452;16.994;2024-01-30T05:07:03;102060.87;;;-2.04;100.00
75629;BME280;64213;46.452;16.994;2024-01-30T05:10:06;102059.88;;;-2.13;100.00
75629;BME280;64213;46.452;16.994;2024-01-30T05:13:09;102062.19;;;-2.25;100.00
75629;BME280;64213;46.452;16.994;2024-01-30T05:16:11;102070.75;;;-2.29;100.00
75629;BME280;64213;46.452;16.994;2024-01-30T05:19:15;102066.16;;;-2.42;100.00
75629;BME280;64213;46.452;16.994;2024-01-30T05:22:18;102073.72;;;-2.51;100.00
75629;BME280;64213;46.452;16.994;2024-01-30T05:25:21;102072.06;;;-2.48;100.00
75629;BME280;64213;46.452;16.994;2024-01-30T05:28:24;102073.72;;;-2.51;100.00
75629;BME280;64213;46.452;16.994;2024-01-30T05:31:27;102069.41;;;-2.51;100.00
75629;BME280;64213;46.452;16.994;2024-01-30T05:34:30;102066.72;;;-2.55;100.00
75629;BME280;64213;46.452;16.994;2024-01-30T05:37:32;102055.69;;;-2.47;100.00
75629;BME280;64213;46.452;16.994;2024-01-30T05:40:35;102069.69;;;-2.39;100.00
75629;BME280;64213;46.452;16.994;2024-01-30T05:43:37;102053.56;;;-2.65;100.00
75629;BME280;64213;46.452;16.994;2024-01-30T05:46:40;102082.88;;;-2.66;100.00
75629;BME280;64213;46.452;16.994;2024-01-30T05:49:42;102073.25;;;-2.73;100.00
75629;BME280;64213;46.452;16.994;2024-01-30T05:52:45;102080.84;;;-2.79;100.00
75629;BME280;64213;46.452;16.994;2024-01-30T05:55:47;102077.28;;;-2.84;100.00
75629;BME280;64213;46.452;16.994;2024-01-30T05:58:50;102080.78;;;-2.82;100.00
75629;BME280;64213;46.452;16.994;2024-01-30T06:01:53;102089.56;;;-2.75;100.00
75629;BME280;64213;46.452;16.994;2024-01-30T06:04:56;102092.06;;;-2.80;100.00
75629;BME280;64213;46.452;16.994;2024-01-30T06:07:58;102088.41;;;-2.88;100.00
75629;BME280;64213;46.452;16.994;2024-01-30T06:11:01;102073.56;;;-2.95;100.00
75629;BME280;64213;46.452;16.994;2024-01-30T06:14:03;102084.88;;;-2.92;100.00
75629;BME280;64213;46.452;16.994;2024-01-30T06:17:06;102091.91;;;-2.86;100.00
75629;BME280;64213;46.452;16.994;2024-01-30T06:20:08;102096.50;;;-2.74;100.00
75629;BME280;64213;46.452;16.994;2024-01-30T06:23:11;102097.53;;;-2.68;100.00
75629;BME280;64213;46.452;16.994;2024-01-30T06:26:15;102104.25;;;-2.74;100.00
75629;BME280;64213;46.452;16.994;2024-01-30T06:29:18;102097.53;;;-2.68;100.00
75629;BME280;64213;46.452;16.994;2024-01-30T06:32:21;102096.41;;;-2.41;100.00
75629;BME280;64213;46.452;16.994;2024-01-30T06:35:26;102105.28;;;-2.30;100.00
75629;BME280;64213;46.452;16.994;2024-01-30T06:38:30;102097.69;;;-2.21;100.00
75629;BME280;64213;46.452;16.994;2024-01-30T06:41:33;102104.69;;;-2.18;100.00
75629;BME280;64213;46.452;16.994;2024-01-30T06:44:36;102100.50;;;-2.12;100.00
75629;BME280;64213;46.452;16.994;2024-01-30T06:47:38;102104.28;;;-1.97;100.00
75629;BME280;64213;46.452;16.994;2024-01-30T06:50:41;102108.84;;;-1.84;100.00
75629;BME280;64213;46.452;16.994;2024-01-30T06:53:43;102115.78;;;-1.83;100.00
75629;BME280;64213;46.452;16.994;2024-01-30T06:56:46;102109.81;;;-1.79;100.00
75629;BME280;64213;46.452;16.994;2024-01-30T06:59:49;102108.25;;;-1.72;100.00
75629;BME280;64213;46.452;16.994;2024-01-30T07:02:51;102121.41;;;-1.60;100.00
75629;BME280;64213;46.452;16.994;2024-01-30T07:05:54;102119.00;;;-1.52;100.00
75629;BME280;64213;46.452;16.994;2024-01-30T07:08:57;102118.31;;;-1.42;100.00
75629;BME280;64213;46.452;16.994;2024-01-30T07:11:59;102122.75;;;-1.35;100.00
75629;BME280;64213;46.452;16.994;2024-01-30T07:15:02;102114.97;;;-1.35;100.00
75629;BME280;64213;46.452;16.994;2024-01-30T07:18:08;102115.66;;;-1.45;100.00
75629;BME280;64213;46.452;16.994;2024-01-30T07:21:12;102116.69;;;-1.35;100.00
75629;BME280;64213;46.452;16.994;2024-01-30T07:24:15;102115.31;;;-1.15;100.00
75629;BME280;64213;46.452;16.994;2024-01-30T07:27:17;102109.47;;;-1.05;100.00
75629;BME280;64213;46.452;16.994;2024-01-30T07:30:20;102112.22;;;-0.94;100.00
75629;BME280;64213;46.452;16.994;2024-01-30T07:33:23;102113.25;;;-0.84;100.00
75629;BME280;64213;46.452;16.994;2024-01-30T07:36:26;102111.37;;;-0.93;100.00
75629;BME280;64213;46.452;16.994;2024-01-30T07:39:28;102110.28;;;-1.07;100.00
75629;BME280;64213;46.452;16.994;2024-01-30T07:42:30;102115.31;;;-1.15;100.00
75629;BME280;64213;46.452;16.994;2024-01-30T07:45:33;102111.03;;;-1.14;100.00
75629;BME280;64213;46.452;16.994;2024-01-30T07:48:35;102111.97;;;-1.09;100.00
75629;BME280;64213;46.452;16.994;2024-01-30T07:51:38;102109.53;;;-1.02;100.00
75629;BME280;64213;46.452;16.994;2024-01-30T07:54:40;102117.06;;;-0.61;100.00
75629;BME280;64213;46.452;16.994;2024-01-30T07:57:43;102115.59;;;0.20;100.00
75629;BME280;64213;46.452;16.994;2024-01-30T08:00:46;102114.63;;;0.90;99.72
75629;BME280;64213;46.452;16.994;2024-01-30T08:03:48;102113.34;;;1.47;96.94
75629;BME280;64213;46.452;16.994;2024-01-30T08:06:51;102116.19;;;1.93;94.73
75629;BME280;64213;46.452;16.994;2024-01-30T08:09:54;102112.84;;;2.25;91.96
75629;BME280;64213;46.452;16.994;2024-01-30T08:12:56;102103.28;;;2.24;92.14
75629;BME280;64213;46.452;16.994;2024-01-30T08:15:58;102107.69;;;2.42;91.53
75629;BME280;64213;46.452;16.994;2024-01-30T08:19:01;102098.09;;;2.39;89.26
75629;BME280;64213;46.452;16.994;2024-01-30T08:22:03;102110.28;;;2.36;89.10
75629;BME280;64213;46.452;16.994;2024-01-30T08:25:06;102110.25;;;2.32;88.19
75629;BME280;64213;46.452;16.994;2024-01-30T08:28:10;102113.75;;;2.36;89.16
75629;BME280;64213;46.452;16.994;2024-01-30T08:31:12;102116.41;;;2.47;89.16
75629;BME280;64213;46.452;16.994;2024-01-30T08:34:15;102116.38;;;2.39;88.77
75629;BME280;64213;46.452;16.994;2024-01-30T08:37:18;102106.84;;;2.43;89.00
75629;BME280;64213;46.452;16.994;2024-01-30T08:40:21;102112.91;;;2.40;91.80
75629;BME280;64213;46.452;16.994;2024-01-30T08:43:23;102112.06;;;2.55;91.42
75629;BME280;64213;46.452;16.994;2024-01-30T08:46:26;102108.66;;;2.97;89.75
75629;BME280;64213;46.452;16.994;2024-01-30T08:49:29;102106.88;;;3.64;88.78
75629;BME280;64213;46.452;16.994;2024-01-30T08:52:31;102108.47;;;4.08;86.53
75629;BME280;64213;46.452;16.994;2024-01-30T08:55:35;102104.84;;;4.36;84.00
75629;BME280;64213;46.452;16.994;2024-01-30T08:58:37;102107.25;;;4.76;82.35
75629;BME280;64213;46.452;16.994;2024-01-30T09:01:40;102107.19;;;4.85;82.92
75629;BME280;64213;46.452;16.994;2024-01-30T09:04:56;102098.41;;;4.89;82.35
75629;BME280;64213;46.452;16.994;2024-01-30T09:07:59;102107.78;;;5.18;82.15
75629;BME280;64213;46.452;16.994;2024-01-30T09:11:12;102110.00;;;5.61;80.92
75629;BME280;64213;46.452;16.994;2024-01-30T09:14:15;102108.16;;;5.71;81.36
75629;BME280;64213;46.452;16.994;2024-01-30T09:17:17;102113.03;;;6.06;78.40
75629;BME280;64213;46.452;16.994;2024-01-30T09:20:20;102109.03;;;5.73;81.19
75629;BME280;64213;46.452;16.994;2024-01-30T09:23:25;102111.59;;;5.79;78.87
75629;BME280;64213;46.452;16.994;2024-01-30T09:26:27;102115.16;;;5.70;77.93
75629;BME280;64213;46.452;16.994;2024-01-30T09:29:30;102105.16;;;6.06;74.92
75629;BME280;64213;46.452;16.994;2024-01-30T09:32:32;102105.44;;;6.54;75.98
75629;BME280;64213;46.452;16.994;2024-01-30T09:35:36;102110.63;;;6.59;72.55
75629;BME280;64213;46.452;16.994;2024-01-30T09:38:38;102097.84;;;6.91;71.79
75629;BME280;64213;46.452;16.994;2024-01-30T09:42:00;102100.75;;;6.74;72.18
75629;BME280;64213;46.452;16.994;2024-01-30T09:45:05;102111.41;;;5.96;75.92
75629;BME280;64213;46.452;16.994;2024-01-30T09:48:08;102110.88;;;5.63;75.60
75629;BME280;64213;46.452;16.994;2024-01-30T09:51:10;102111.13;;;5.35;77.33
75629;BME280;64213;46.452;16.994;2024-01-30T09:54:14;102109.44;;;5.28;76.79
75629;BME280;64213;46.452;16.994;2024-01-30T09:57:17;102100.94;;;5.02;77.71
75629;BME280;64213;46.452;16.994;2024-01-30T10:00:20;102094.06;;;4.85;78.18
75629;BME280;64213;46.452;16.994;2024-01-30T10:03:24;102098.50;;;4.79;78.08
75629;BME280;64213;46.452;16.994;2024-01-30T10:06:27;102091.50;;;4.75;78.24
75629;BME280;64213;46.452;16.994;2024-01-30T10:09:33;102091.44;;;4.88;78.00
75629;BME280;64213;46.452;16.994;2024-01-30T10:12:39;102093.94;;;5.01;77.05
75629;BME280;64213;46.452;16.994;2024-01-30T10:15:42;102099.97;;;5.12;76.38
75629;BME280;64213;46.452;16.994;2024-01-30T10:18:44;102085.62;;;5.50;74.67
75629;BME280;64213;46.452;16.994;2024-01-30T10:21:47;102084.81;;;6.23;71.46
75629;BME280;64213;46.452;16.994;2024-01-30T10:24:50;102084.50;;;7.05;69.14
75629;BME280;64213;46.452;16.994;2024-01-30T10:27:53;102073.63;;;8.13;64.23
75629;BME280;64213;46.452;16.994;2024-01-30T10:31:02;102069.78;;;8.30;64.39
75629;BME280;64213;46.452;16.994;2024-01-30T10:34:08;102065.62;;;8.60;61.63
75629;BME280;64213;46.452;16.994;2024-01-30T10:37:25;102067.87;;;9.13;59.56
75629;BME280;64213;46.452;16.994;2024-01-30T10:40:28;102053.19;;;9.68;58.07
75629;BME280;64213;46.452;16.994;2024-01-30T10:43:35;102061.22;;;8.96;56.96
75629;BME280;64213;46.452;16.994;2024-01-30T10:46:38;102042.12;;;9.85;55.43
75629;BME280;64213;46.452;16.994;2024-01-30T10:49:43;102031.25;;;9.31;56.20
75629;BME280;64213;46.452;16.994;2024-01-30T10:52:47;102038.75;;;10.67;54.71
75629;BME280;64213;46.452;16.994;2024-01-30T10:55:51;102039.53;;;10.70;53.43
75629;BME280;64213;46.452;16.994;2024-01-30T10:58:54;102038.09;;;10.02;52.45
75629;BME280;64213;46.452;16.994;2024-01-30T11:01:58;102039.19;;;10.23;52.85
75629;BME280;64213;46.452;16.994;2024-01-30T11:05:01;102034.28;;;10.11;52.36
75629;BME280;64213;46.452;16.994;2024-01-30T11:08:11;102026.56;;;10.63;52.25
75629;BME280;64213;46.452;16.994;2024-01-30T11:11:16;102025.81;;;9.70;54.89
75629;BME280;64213;46.452;16.994;2024-01-30T11:14:23;102025.34;;;10.73;51.28
75629;BME280;64213;46.452;16.994;2024-01-30T11:18:00;102013.72;;;10.77;52.81
75629;BME280;64213;46.452;16.994;2024-01-30T11:21:04;102016.97;;;11.12;51.07
75629;BME280;64213;46.452;16.994;2024-01-30T11:24:07;102012.66;;;9.36;53.29
75629;BME280;64213;46.452;16.994;2024-01-30T11:27:10;102008.31;;;10.24;52.27
75629;BME280;64213;46.452;16.994;2024-01-30T11:30:27;102006.97;;;10.11;53.42
75629;BME280;64213;46.452;16.994;2024-01-30T11:33:30;102008.75;;;10.40;52.85
75629;BME280;64213;46.452;16.994;2024-01-30T11:36:36;102003.13;;;10.77;50.59
75629;BME280;64213;46.452;16.994;2024-01-30T11:39:39;101999.50;;;9.95;51.71
75629;BME280;64213;46.452;16.994;2024-01-30T11:42:44;101997.56;;;10.32;52.46
75629;BME280;64213;46.452;16.994;2024-01-30T11:45:48;102003.31;;;9.87;53.77
75629;BME280;64213;46.452;16.994;2024-01-30T11:48:52;101996.22;;;9.87;52.93
75629;BME280;64213;46.452;16.994;2024-01-30T11:51:55;101994.62;;;10.41;52.09
75629;BME280;64213;46.452;16.994;2024-01-30T11:54:57;101990.47;;;10.32;52.26
75629;BME280;64213;46.452;16.994;2024-01-30T11:58:00;101987.66;;;10.65;51.59
75629;BME280;64213;46.452;16.994;2024-01-30T12:01:02;101979.53;;;10.96;50.15
75629;BME280;64213;46.452;16.994;2024-01-30T12:04:05;101973.78;;;10.85;50.79
75629;BME280;64213;46.452;16.994;2024-01-30T12:07:13;101977.50;;;10.78;48.49
75629;BME280;64213;46.452;16.994;2024-01-30T12:10:18;101959.72;;;10.83;49.43
75629;BME280;64213;46.452;16.994;2024-01-30T12:13:21;101964.63;;;10.93;49.75
75629;BME280;64213;46.452;16.994;2024-01-30T12:16:23;101970.09;;;10.89;49.56
75629;BME280;64213;46.452;16.994;2024-01-30T12:19:26;101957.00;;;10.58;49.14
75629;BME280;64213;46.452;16.994;2024-01-30T12:22:29;101957.59;;;10.11;49.53
75629;BME280;64213;46.452;16.994;2024-01-30T12:25:31;101956.28;;;10.26;49.71
75629;BME280;64213;46.452;16.994;2024-01-30T12:28:34;101947.12;;;10.36;50.14
75629;BME280;64213;46.452;16.994;2024-01-30T12:31:37;101940.59;;;9.62;51.16
75629;BME280;64213;46.452;16.994;2024-01-30T12:34:42;101940.31;;;10.29;49.95
75629;BME280;64213;46.452;16.994;2024-01-30T12:38:02;101938.41;;;10.05;51.12
75629;BME280;64213;46.452;16.994;2024-01-30T12:41:07;101932.06;;;9.82;50.87
75629;BME280;64213;46.452;16.994;2024-01-30T12:44:09;101929.19;;;10.18;50.69
75629;BME280;64213;46.452;16.994;2024-01-30T12:47:12;101924.50;;;9.99;50.31
75629;BME280;64213;46.452;16.994;2024-01-30T12:50:14;101927.09;;;10.29;49.69
75629;BME280;64213;46.452;16.994;2024-01-30T12:53:18;101922.81;;;10.23;49.94
75629;BME280;64213;46.452;16.994;2024-01-30T12:56:20;101909.41;;;10.01;50.79
75629;BME280;64213;46.452;16.994;2024-01-30T12:59:23;101906.66;;;9.78;50.63
75629;BME280;64213;46.452;16.994;2024-01-30T13:02:25;101896.91;;;9.80;51.60
75629;BME280;64213;46.452;16.994;2024-01-30T13:05:32;101898.28;;;9.64;51.77
75629;BME280;64213;46.452;16.994;2024-01-30T13:08:34;101898.19;;;9.37;52.45
75629;BME280;64213;46.452;16.994;2024-01-30T13:11:37;101893.63;;;9.13;53.06
75629;BME280;64213;46.452;16.994;2024-01-30T13:14:39;101892.91;;;8.75;53.54
75629;BME280;64213;46.452;16.994;2024-01-30T13:17:42;101897.31;;;8.74;53.72
75629;BME280;64213;46.452;16.994;2024-01-30T13:20:46;101895.47;;;8.42;54.79
75629;BME280;64213;46.452;16.994;2024-01-30T13:23:48;101900.53;;;8.51;54.75
75629;BME280;64213;46.452;16.994;2024-01-30T13:26:55;101891.09;;;8.43;54.54
75629;BME280;64213;46.452;16.994;2024-01-30T13:29:58;101894.66;;;8.40;54.42
75629;BME280;64213;46.452;16.994;2024-01-30T13:33:00;101897.41;;;7.98;55.51
75629;BME280;64213;46.452;16.994;2024-01-30T13:36:03;101896.28;;;8.08;55.27
75629;BME280;64213;46.452;16.994;2024-01-30T13:39:05;101899.00;;;8.05;55.57
75629;BME280;64213;46.452;16.994;2024-01-30T13:42:11;101903.19;;;8.14;56.13
75629;BME280;64213;46.452;16.994;2024-01-30T13:45:14;101898.22;;;8.02;55.75
75629;BME280;64213;46.452;16.994;2024-01-30T13:48:17;101894.84;;;7.95;56.32
75629;BME280;64213;46.452;16.994;2024-01-30T13:51:19;101893.25;;;7.88;56.71
75629;BME280;64213;46.452;16.994;2024-01-30T13:54:22;101893.69;;;7.69;56.94
75629;BME280;64213;46.452;16.994;2024-01-30T13:57:25;101891.66;;;7.81;57.46
75629;BME280;64213;46.452;16.994;2024-01-30T14:00:27;101889.12;;;7.36;58.83
75629;BME280;64213;46.452;16.994;2024-01-30T14:03:30;101887.09;;;7.50;58.00
75629;BME280;64213;46.452;16.994;2024-01-30T14:06:32;101880.78;;;7.56;58.45
75629;BME280;64213;46.452;16.994;2024-01-30T14:09:35;101882.06;;;7.38;59.11
75629;BME280;64213;46.452;16.994;2024-01-30T14:12:38;101880.87;;;7.11;58.26
75629;BME280;64213;46.452;16.994;2024-01-30T14:15:41;101881.78;;;7.08;58.46
75629;BME280;64213;46.452;16.994;2024-01-30T14:18:44;101887.31;;;6.94;58.82
75629;BME280;64213;46.452;16.994;2024-01-30T14:21:46;101879.88;;;6.71;59.62
75629;BME280;64213;46.452;16.994;2024-01-30T14:24:48;101883.00;;;6.92;59.66
75629;BME280;64213;46.452;16.994;2024-01-30T14:27:51;101868.78;;;7.02;59.13
75629;BME280;64213;46.452;16.994;2024-01-30T14:30:54;101865.59;;;6.85;59.47
75629;BME280;64213;46.452;16.994;2024-01-30T14:33:56;101873.59;;;6.79;59.86
75629;BME280;64213;46.452;16.994;2024-01-30T14:37:00;101876.34;;;6.74;60.69
75629;BME280;64213;46.452;16.994;2024-01-30T14:40:02;101870.91;;;6.82;60.36
75629;BME280;64213;46.452;16.994;2024-01-30T14:43:05;101875.69;;;6.61;61.33
75629;BME280;64213;46.452;16.994;2024-01-30T14:46:08;101879.12;;;6.63;61.37
75629;BME280;64213;46.452;16.994;2024-01-30T14:49:10;101877.41;;;6.62;61.53
75629;BME280;64213;46.452;16.994;2024-01-30T14:52:13;101881.31;;;6.40;61.20
75629;BME280;64213;46.452;16.994;2024-01-30T14:55:16;101878.63;;;6.43;61.57
75629;BME280;64213;46.452;16.994;2024-01-30T14:58:19;101880.50;;;6.36;61.52
75629;BME280;64213;46.452;16.994;2024-01-30T15:01:22;101881.53;;;6.27;62.09
75629;BME280;64213;46.452;16.994;2024-01-30T15:04:25;101887.91;;;6.13;62.76
75629;BME280;64213;46.452;16.994;2024-01-30T15:07:27;101884.59;;;6.00;63.36
75629;BME280;64213;46.452;16.994;2024-01-30T15:10:41;101889.00;;;5.96;63.31
75629;BME280;64213;46.452;16.994;2024-01-30T15:13:43;101892.62;;;5.86;63.50
75629;BME280;64213;46.452;16.994;2024-01-30T15:16:46;101880.53;;;5.76;63.72
75629;BME280;64213;46.452;16.994;2024-01-30T15:19:48;101883.28;;;5.68;64.21
75629;BME280;64213;46.452;16.994;2024-01-30T15:22:52;101882.56;;;5.57;64.61
75629;BME280;64213;46.452;16.994;2024-01-30T15:25:55;101877.53;;;5.39;65.49
75629;BME280;64213;46.452;16.994;2024-01-30T15:28:57;101876.78;;;5.30;65.92
75629;BME280;64213;46.452;16.994;2024-01-30T15:32:00;101879.56;;;5.18;65.88
75629;BME280;64213;46.452;16.994;2024-01-30T15:35:02;101877.09;;;5.06;66.61
75629;BME280;64213;46.452;16.994;2024-01-30T15:38:07;101878.00;;;5.00;66.91
75629;BME280;64213;46.452;16.994;2024-01-30T15:41:10;101876.38;;;4.90;66.93
75629;BME280;64213;46.452;16.994;2024-01-30T15:44:13;101883.50;;;4.82;67.66
75629;BME280;64213;46.452;16.994;2024-01-30T15:47:15;101887.03;;;4.76;67.98